Time;durP1;ratioP1;P1;durP2;ratioP2;P2;SDS_P1;SDS_P2;PMS_P1;PMS_P2;Temp;Humidity;BMP_temperature;BMP_pressure;BME280_temperature;BME280_humidity;BME280_pressure;Samples;Min_cycle;Max_cycle;Signal;HPM_P1;HPM_P2
2023/02/24 00:01:50;;;;;;;9.73;6.63;;;9.60;83.90;;;;;;5014173;28;20037;-57
2023/02/24 00:04:17;;;;;;;8.25;6.10;;;9.60;83.60;;;;;;5014512;28;20041;-58
2023/02/24 00:06:43;;;;;;;6.05;5.35;;;9.60;83.30;;;;;;5015958;28;20037;-59
2023/02/24 00:09:18;;;;;;;9.05;5.93;;;9.50;83.10;;;;;;5015121;28;20107;-59
2023/02/24 00:11:45;;;;;;;;;;;9.50;82.80;;;;;;5015036;28;20055;-58
2023/02/24 00:14:16;;;;;;;9.45;5.22;;;9.50;83.00;;;;;;5013498;28;20349;-60
2023/02/24 00:16:45;;;;;;;8.57;5.50;;;9.40;82.50;;;;;;5015317;28;20044;-58
2023/02/24 00:19:15;;;;;;;12.43;6.63;;;9.40;82.40;;;;;;5016498;28;20567;-59
2023/02/24 00:21:41;;;;;;;10.77;6.40;;;9.30;82.40;;;;;;5012858;28;20414;-59
2023/02/24 00:24:07;;;;;;;8.02;6.00;;;9.30;82.80;;;;;;5012901;28;20064;-59
2023/02/24 00:26:32;;;;;;;9.65;6.18;;;9.20;83.10;;;;;;5012976;28;20493;-60
2023/02/24 00:28:59;;;;;;;9.05;6.10;;;9.10;83.10;;;;;;5014708;28;20092;-58
2023/02/24 00:31:29;;;;;;;15.50;7.90;;;9.10;83.20;;;;;;5014850;28;20087;-59
2023/02/24 00:33:56;;;;;;;14.13;8.48;;;9.00;83.20;;;;;;5012592;28;20587;-57
2023/02/24 00:36:25;;;;;;;14.98;8.85;;;9.00;83.20;;;;;;5015080;28;20040;-57
2023/02/24 00:38:54;;;;;;;19.20;10.13;;;8.90;83.30;;;;;;5015693;28;20033;-60
2023/02/24 00:41:22;;;;;;;30.60;12.48;;;8.90;83.30;;;;;;5012985;28;20528;-60
2023/02/24 00:43:49;;;;;;;19.48;10.68;;;8.90;83.20;;;;;;5010792;28;20042;-60
2023/02/24 00:46:17;;;;;;;15.75;8.52;;;8.80;83.30;;;;;;5011729;28;20516;-58
2023/02/24 00:48:46;;;;;;;26.63;8.07;;;8.80;83.30;;;;;;5014818;28;20057;-60
2023/02/24 00:51:24;;;;;;;52.72;6.75;;;8.70;83.10;;;;;;5013850;28;20048;-58
2023/02/24 00:53:55;;;;;;;81.28;6.50;;;8.70;83.10;;;;;;5012791;28;20145;-59
2023/02/24 00:56:23;;;;;;;58.72;6.55;;;8.70;83.20;;;;;;5010782;28;20045;-60
2023/02/24 00:58:48;;;;;;;162.35;7.20;;;8.60;83.30;;;;;;5009753;28;20063;-59
2023/02/24 01:01:17;;;;;;;135.55;6.60;;;8.50;83.30;;;;;;5015897;28;20378;-59
2023/02/24 01:03:50;;;;;;;131.68;8.50;;;8.50;83.20;;;;;;5015323;28;20498;-59
2023/02/24 01:06:20;;;;;;;96.47;7.70;;;8.40;83.40;;;;;;5018404;28;20121;-59
2023/02/24 01:08:51;;;;;;;162.30;8.63;;;8.30;83.50;;;;;;5019738;28;20041;-58
2023/02/24 01:14:07;;;;;;;17.02;6.22;;;8.10;84.20;;;;;;5017671;28;20048;-57
2023/02/24 01:16:33;;;;;;;10.35;6.57;;;8.00;84.50;;;;;;5016136;28;20125;-59
2023/02/24 01:18:59;;;;;;;12.10;6.57;;;8.00;84.80;;;;;;5019073;28;20467;-60
2023/02/24 01:21:25;;;;;;;10.52;6.20;;;7.90;86.00;;;;;;5018666;28;20069;-60
2023/02/24 01:23:51;;;;;;;8.23;5.97;;;7.90;85.30;;;;;;5017003;28;20068;-57
2023/02/24 01:26:18;;;;;;;16.25;5.93;;;8.00;85.30;;;;;;5016532;28;20084;-54
2023/02/24 01:28:47;;;;;;;8.10;5.32;;;7.90;84.90;;;;;;5015990;28;20041;-58
2023/02/24 01:31:19;;;;;;;6.70;5.80;;;7.90;84.60;;;;;;5018242;28;20132;-59
2023/02/24 01:33:46;;;;;;;7.28;5.88;;;8.00;84.60;;;;;;5015776;28;20048;-60
2023/02/24 01:36:24;;;;;;;7.22;5.90;;;7.90;84.50;;;;;;5017492;28;20083;-58
2023/02/24 01:38:50;;;;;;;22.80;7.13;;;7.90;84.60;;;;;;5017274;28;20033;-59
2023/02/24 01:41:19;;;;;;;51.92;7.63;;;7.90;84.50;;;;;;5016397;28;20158;-57
2023/02/24 01:44:15;;;;;;;41.53;6.97;;;7.90;84.60;;;;;;5013553;28;20517;-58
2023/02/24 01:46:43;;;;;;;36.80;6.55;;;8.00;85.50;;;;;;4999357;28;20037;-58
2023/02/24 01:49:21;;;;;;;38.70;6.57;;;8.00;84.90;;;;;;5016880;28;20038;-59
2023/02/24 01:51:49;;;;;;;24.42;6.18;;;8.00;85.30;;;;;;5015440;28;20089;-59
2023/02/24 01:54:18;;;;;;;35.38;5.72;;;8.00;85.20;;;;;;5018842;28;20058;-59
2023/02/24 01:56:46;;;;;;;25.92;6.10;;;8.00;85.30;;;;;;5029704;28;20567;-60
2023/02/24 01:59:14;;;;;;;23.48;6.25;;;8.00;85.30;;;;;;5016637;28;20120;-59
2023/02/24 02:01:42;;;;;;;11.75;5.60;;;8.00;85.20;;;;;;5018719;28;20508;-61
2023/02/24 02:04:19;;;;;;;7.20;5.03;;;8.00;85.10;;;;;;5013686;28;20048;-60
2023/02/24 02:06:47;;;;;;;8.13;4.93;;;8.00;85.00;;;;;;5017223;28;20390;-60
2023/02/24 02:09:14;;;;;;;5.63;5.03;;;8.00;84.70;;;;;;5015680;28;20049;-60
2023/02/24 02:11:40;;;;;;;5.50;4.93;;;7.90;84.60;;;;;;5016403;28;20060;-60
2023/02/24 02:14:06;;;;;;;5.30;4.80;;;7.90;84.50;;;;;;5013522;28;20514;-58
2023/02/24 02:17:09;;;;;;;7.55;4.85;;;7.90;84.50;;;;;;5014135;28;20038;-59
2023/02/24 02:19:58;;;;;;;11.63;5.07;;;7.90;84.70;;;;;;5014355;28;20123;-59
2023/02/24 02:23:15;;;;;;;5.57;4.35;;;7.80;84.60;;;;;;5012142;28;20061;-59
2023/02/24 02:25:59;;;;;;;5.13;4.47;;;7.80;84.60;;;;;;4990821;28;20034;-58
2023/02/24 02:28:46;;;;;;;6.90;4.77;;;7.70;84.60;;;;;;5012853;28;20112;-59
2023/02/24 02:31:31;;;;;;;5.30;4.80;;;7.70;84.10;;;;;;5015532;28;20281;-58
2023/02/24 02:34:18;;;;;;;6.47;4.57;;;7.60;84.30;;;;;;5017664;28;20037;-59
2023/02/24 02:36:56;;;;;;;5.05;4.55;;;7.60;84.30;;;;;;5013818;28;20580;-57
2023/02/24 02:39:33;;;;;;;5.90;4.97;;;7.50;84.40;;;;;;5016152;28;20049;-59
2023/02/24 02:42:13;;;;;;;5.95;5.20;;;7.40;84.20;;;;;;5013041;28;20064;-57
2023/02/24 02:45:03;;;;;;;8.82;4.85;;;7.40;84.30;;;;;;5017729;28;20033;-60
2023/02/24 02:47:45;;;;;;;7.65;4.97;;;7.40;85.00;;;;;;5014683;28;20132;-60
2023/02/24 02:50:30;;;;;;;7.28;5.28;;;7.30;85.10;;;;;;5013071;28;20042;-60
2023/02/24 02:53:51;;;;;;;5.95;4.93;;;7.20;85.50;;;;;;5013039;28;20061;-59
2023/02/24 02:56:22;;;;;;;7.03;5.43;;;7.30;85.90;;;;;;4992995;28;20033;-58
2023/02/24 02:58:52;;;;;;;6.45;5.28;;;7.20;85.20;;;;;;5015206;28;20041;-58
2023/02/24 03:01:22;;;;;;;6.65;5.70;;;7.20;85.30;;;;;;5012258;28;20034;-58
2023/02/24 03:03:53;;;;;;;5.72;5.13;;;7.20;85.40;;;;;;5015438;28;20055;-59
2023/02/24 03:06:30;;;;;;;6.40;5.43;;;7.20;85.50;;;;;;5015401;28;20292;-58
2023/02/24 03:09:00;;;;;;;6.80;5.20;;;7.20;85.50;;;;;;5016614;28;20064;-60
2023/02/24 03:11:27;;;;;;;6.35;5.25;;;7.20;85.50;;;;;;5013752;28;20100;-59
2023/02/24 03:13:56;;;;;;;8.85;5.22;;;7.20;85.20;;;;;;5017478;28;20053;-58
2023/02/24 03:16:25;;;;;;;6.13;5.22;;;7.20;85.30;;;;;;5014552;28;20050;-58
2023/02/24 03:19:02;;;;;;;6.00;4.90;;;7.20;85.10;;;;;;5014473;28;20061;-58
2023/02/24 03:21:41;;;;;;;6.57;5.13;;;7.20;85.20;;;;;;5013581;28;20167;-61
2023/02/24 03:24:07;;;;;;;6.20;4.97;;;7.20;85.20;;;;;;5015123;28;20121;-57
2023/02/24 03:26:40;;;;;;;5.93;5.15;;;7.20;84.90;;;;;;5010749;28;20046;-59
2023/02/24 03:29:17;;;;;;;7.15;5.57;;;7.20;85.00;;;;;;5018450;28;20037;-57
2023/02/24 03:31:52;;;;;;;6.75;4.85;;;7.20;84.60;;;;;;5018205;28;20038;-60
2023/02/24 03:34:26;;;;;;;6.45;5.00;;;7.20;84.50;;;;;;5018038;28;20037;-59
2023/02/24 03:36:53;;;;;;;7.75;5.07;;;7.20;84.40;;;;;;5015070;28;20444;-59
2023/02/24 03:39:19;;;;;;;5.70;4.82;;;7.20;84.30;;;;;;5017135;28;20529;-59
2023/02/24 03:42:15;;;;;;;6.35;4.85;;;7.10;84.20;;;;;;5013718;28;20105;-59
2023/02/24 03:44:48;;;;;;;5.22;4.68;;;7.10;84.70;;;;;;5022752;27;20420;-57
2023/02/24 03:47:16;;;;;;;5.85;4.80;;;7.10;84.50;;;;;;5026347;28;20021;-57
2023/02/24 03:49:42;;;;;;;7.03;5.40;;;7.10;84.40;;;;;;5027813;28;20065;-58
2023/02/24 03:52:36;;;;;;;5.97;4.75;;;7.10;84.30;;;;;;5026854;28;20033;-59
2023/02/24 03:55:26;;;;;;;6.50;4.85;;;7.10;84.20;;;;;;5027039;28;20030;-58
2023/02/24 03:58:03;;;;;;;5.78;4.80;;;7.10;84.10;;;;;;5019470;28;20080;-61
2023/02/24 04:00:43;;;;;;;6.00;4.40;;;7.10;84.00;;;;;;5021163;28;20042;-60
2023/02/24 04:03:48;;;;;;;5.05;4.55;;;7.00;83.80;;;;;;5020875;28;20041;-59
2023/02/24 04:06:38;;;;;;;4.60;4.10;;;7.00;84.10;;;;;;5021056;28;20100;-60
2023/02/24 04:09:12;;;;;;;6.15;4.63;;;7.00;84.10;;;;;;5026216;28;20116;-59
2023/02/24 04:11:45;;;;;;;4.97;4.47;;;7.00;84.60;;;;;;5016753;28;20033;-58
2023/02/24 04:14:29;;;;;;;4.80;4.40;;;7.00;83.60;;;;;;5021664;28;20127;-60
2023/02/24 04:17:19;;;;;;;4.75;4.25;;;7.00;83.40;;;;;;5021390;28;20067;-60
2023/02/24 04:19:49;;;;;;;5.20;4.50;;;6.90;83.20;;;;;;5023041;28;20037;-58
2023/02/24 04:22:18;;;;;;;5.13;4.43;;;6.90;83.30;;;;;;5019809;28;20184;-59
2023/02/24 04:24:49;;;;;;;5.10;4.60;;;6.80;83.40;;;;;;5024821;28;20244;-60
2023/02/24 04:27:16;;;;;;;4.90;4.38;;;6.80;83.30;;;;;;5022637;28;20037;-58
2023/02/24 04:29:48;;;;;;;5.25;4.55;;;6.80;83.30;;;;;;5020413;28;20051;-58
2023/02/24 04:32:17;;;;;;;5.80;4.18;;;6.60;83.50;;;;;;5021457;28;20034;-57
2023/02/24 04:34:44;;;;;;;6.63;4.70;;;6.60;83.70;;;;;;5022297;28;20480;-61
2023/02/24 04:37:10;;;;;;;4.95;4.45;;;6.50;83.80;;;;;;5020666;28;20025;-59
2023/02/24 04:39:37;;;;;;;6.57;4.60;;;6.50;83.80;;;;;;5023514;28;20033;-58
2023/02/24 04:42:04;;;;;;;5.63;4.80;;;6.50;83.80;;;;;;5021325;28;20045;-59
2023/02/24 04:44:31;;;;;;;5.68;4.90;;;6.50;83.90;;;;;;5029553;28;20041;-59
2023/02/24 04:46:57;;;;;;;5.93;5.18;;;6.50;83.90;;;;;;5022642;28;20047;-57
2023/02/24 04:49:23;;;;;;;6.72;5.47;;;6.50;83.90;;;;;;5025504;28;20026;-59
2023/02/24 04:51:50;;;;;;;5.15;4.65;;;6.50;83.90;;;;;;5024749;28;20428;-59
2023/02/24 04:54:18;;;;;;;5.65;4.60;;;6.50;83.70;;;;;;5020177;28;20056;-59
2023/02/24 04:56:46;;;;;;;5.72;4.90;;;6.50;83.30;;;;;;5009598;28;20489;-60
2023/02/24 04:59:13;;;;;;;6.05;5.00;;;6.50;82.90;;;;;;5003637;28;20038;-59
2023/02/24 05:01:41;;;;;;;6.47;4.78;;;6.40;83.00;;;;;;5011685;28;20033;-59
2023/02/24 05:04:08;;;;;;;5.65;5.00;;;6.40;83.20;;;;;;5006716;28;20583;-58
2023/02/24 05:06:34;;;;;;;7.43;5.22;;;6.30;84.20;;;;;;5013033;28;20044;-60
2023/02/24 05:09:00;;;;;;;8.07;5.40;;;6.30;83.50;;;;;;5016434;28;20045;-59
2023/02/24 05:11:33;;;;;;;14.02;6.20;;;6.30;83.60;;;;;;5013521;28;20064;-58
2023/02/24 05:13:59;;;;;;;11.95;6.10;;;6.30;83.70;;;;;;5006148;28;20030;-60
2023/02/24 05:16:27;;;;;;;14.77;6.15;;;6.30;83.70;;;;;;5007542;28;20093;-58
2023/02/24 05:19:47;;;;;;;54.75;6.70;;;6.30;83.50;;;;;;5007389;28;20042;-57
2023/02/24 05:21:40;;;;;;;17.63;6.70;;;6.30;83.30;;;;;;5008441;28;20037;-60
2023/02/24 05:24:06;;;;;;;8.93;6.25;;;6.20;83.30;;;;;;5010629;28;20044;-62
2023/02/24 05:26:34;;;;;;;8.82;6.22;;;6.20;83.50;;;;;;5008948;28;20041;-59
2023/02/24 05:29:01;;;;;;;10.23;6.63;;;6.10;83.50;;;;;;5002633;28;20568;-60
2023/02/24 05:31:29;;;;;;;9.00;6.13;;;6.00;83.80;;;;;;5007688;28;20092;-60
2023/02/24 05:33:57;;;;;;;9.50;6.85;;;6.00;83.90;;;;;;5010166;28;20042;-60
2023/02/24 05:36:26;;;;;;;10.85;6.47;;;6.00;83.90;;;;;;5011050;28;20038;-57
2023/02/24 05:39:06;;;;;;;12.07;6.68;;;6.00;83.90;;;;;;5000541;28;20106;-61
2023/02/24 05:41:37;;;;;;;9.10;6.80;;;6.00;84.00;;;;;;5011013;28;20157;-60
2023/02/24 05:44:08;;;;;;;15.27;7.70;;;6.00;83.80;;;;;;5011769;28;20065;-59
2023/02/24 05:46:36;;;;;;;16.38;9.27;;;6.00;83.50;;;;;;5011343;28;20037;-59
2023/02/24 05:49:08;;;;;;;16.50;8.60;;;5.90;83.40;;;;;;5012026;28;20041;-59
2023/02/24 05:51:35;;;;;;;27.95;8.52;;;5.90;83.70;;;;;;5009866;28;20113;-58
2023/02/24 05:54:03;;;;;;;21.65;8.27;;;5.80;83.90;;;;;;5029503;28;20939;-60
2023/02/24 05:56:31;;;;;;;12.77;6.75;;;5.70;83.90;;;;;;5013936;28;20488;-59
2023/02/24 05:59:02;;;;;;;16.10;6.50;;;5.60;84.10;;;;;;5012046;28;20037;-59
2023/02/24 06:01:32;;;;;;;10.65;5.85;;;5.60;84.50;;;;;;5010120;28;20036;-60
2023/02/24 06:04:06;;;;;;;12.20;7.25;;;5.50;84.70;;;;;;5009710;28;20049;-60
2023/02/24 06:06:37;;;;;;;22.50;7.07;;;5.50;85.60;;;;;;5008760;28;20037;-60
2023/02/24 06:09:09;;;;;;;32.97;8.07;;;5.50;85.90;;;;;;5010549;28;20249;-60
2023/02/24 06:11:41;;;;;;;40.42;6.68;;;5.50;86.00;;;;;;5004886;28;20140;-60
2023/02/24 06:14:09;;;;;;;38.47;7.82;;;5.40;86.20;;;;;;5004443;28;20519;-60
2023/02/24 06:16:36;;;;;;;31.08;7.65;;;5.40;86.60;;;;;;5008000;28;20042;-61
2023/02/24 06:19:04;;;;;;;75.95;8.98;;;5.50;86.90;;;;;;5008270;28;20042;-59
2023/02/24 06:21:29;;;;;;;63.65;8.63;;;5.50;87.10;;;;;;5008039;28;20041;-59
2023/02/24 06:23:56;;;;;;;53.60;12.02;;;5.50;87.10;;;;;;5009065;28;20346;-61
2023/02/24 06:26:28;;;;;;;58.85;11.40;;;5.50;88.10;;;;;;5008054;28;20042;-61
2023/02/24 06:28:55;;;;;;;57.97;9.40;;;5.50;87.50;;;;;;5009978;28;20490;-61
2023/02/24 06:31:21;;;;;;;28.02;12.80;;;5.60;87.70;;;;;;5009172;28;20417;-59
2023/02/24 06:33:47;;;;;;;48.65;9.50;;;5.60;87.80;;;;;;5006956;28;20038;-57
2023/02/24 06:36:13;;;;;;;66.35;9.13;;;5.70;87.90;;;;;;5008109;28;20040;-61
2023/02/24 06:38:40;;;;;;;38.80;8.13;;;5.70;88.00;;;;;;5010188;28;20072;-58
2023/02/24 06:41:09;;;;;;;120.65;10.20;;;5.70;88.00;;;;;;5009759;28;20048;-60
2023/02/24 06:43:43;;;;;;;29.92;9.38;;;5.80;88.10;;;;;;5007342;28;20042;-60
2023/02/24 06:46:11;;;;;;;27.50;11.43;;;5.80;89.40;;;;;;5010826;28;20573;-60
2023/02/24 06:48:37;;;;;;;51.10;10.23;;;5.90;88.50;;;;;;5010216;28;20042;-60
2023/02/24 06:51:05;;;;;;;78.43;11.50;;;5.90;88.70;;;;;;5007864;28;20068;-59
2023/02/24 06:53:33;;;;;;;74.53;10.27;;;5.90;88.80;;;;;;5008236;28;20084;-60
2023/02/24 06:56:05;;;;;;;52.45;11.07;;;6.00;88.90;;;;;;5010221;28;20089;-60
2023/02/24 06:58:32;;;;;;;72.75;11.63;;;6.10;89.20;;;;;;5006625;28;20564;-60
2023/02/24 07:00:57;;;;;;;80.07;10.30;;;6.10;89.00;;;;;;5005407;28;20041;-57
2023/02/24 07:03:39;;;;;;;52.80;10.50;;;6.20;89.10;;;;;;5009825;28;20425;-61
2023/02/24 07:06:19;;;;;;;60.95;10.10;;;6.20;89.10;;;;;;5008538;28;20041;-60
2023/02/24 07:08:45;;;;;;;65.93;9.88;;;6.30;89.00;;;;;;5008009;28;20042;-60
2023/02/24 07:11:12;;;;;;;39.15;10.57;;;6.30;88.90;;;;;;5004655;28;20429;-58
2023/02/24 07:13:39;;;;;;;63.78;11.75;;;6.40;89.00;;;;;;5007293;28;20038;-60
2023/02/24 07:16:06;;;;;;;35.58;9.15;;;6.40;89.00;;;;;;5005868;28;20084;-59
2023/02/24 07:18:39;;;;;;;32.50;11.05;;;6.50;89.10;;;;;;5006013;28;20121;-60
2023/02/24 07:21:10;;;;;;;22.83;10.05;;;6.50;89.10;;;;;;5006376;28;20033;-59
2023/02/24 07:23:39;;;;;;;17.40;9.75;;;6.60;89.10;;;;;;5008152;28;20039;-61
2023/02/24 07:26:12;;;;;;;17.98;9.23;;;6.60;89.10;;;;;;5008159;28;20038;-58
2023/02/24 07:28:40;;;;;;;16.17;9.38;;;6.60;89.20;;;;;;5004845;28;20437;-61
2023/02/24 07:31:15;;;;;;;20.42;9.10;;;6.60;89.10;;;;;;5007283;28;20026;-60
2023/02/24 07:33:44;;;;;;;14.68;8.82;;;6.70;89.30;;;;;;5006617;28;20049;-60
2023/02/24 07:36:13;;;;;;;16.02;8.98;;;6.80;89.20;;;;;;5008957;28;20114;-59
2023/02/24 07:38:43;;;;;;;18.15;9.40;;;6.80;89.20;;;;;;5008580;28;20065;-60
2023/02/24 07:41:11;;;;;;;17.10;9.75;;;6.90;89.20;;;;;;5007320;28;20045;-60
2023/02/24 07:43:38;;;;;;;14.18;9.48;;;6.90;89.10;;;;;;5007388;28;20029;-59
2023/02/24 07:46:06;;;;;;;14.88;9.05;;;7.00;89.20;;;;;;5008613;28;20042;-57
2023/02/24 07:48:33;;;;;;;11.60;8.25;;;7.00;89.20;;;;;;5009409;28;20112;-60
2023/02/24 07:50:59;;;;;;;13.98;8.90;;;7.10;89.10;;;;;;5009034;28;20124;-57
2023/02/24 07:53:26;;;;;;;14.60;8.77;;;7.10;89.10;;;;;;5005257;28;20208;-59
2023/02/24 07:55:53;;;;;;;13.85;8.55;;;7.20;89.30;;;;;;5009540;28;20052;-59
2023/02/24 07:58:19;;;;;;;14.20;9.55;;;7.30;89.30;;;;;;5007193;28;20037;-60
2023/02/24 08:01:07;;;;;;;14.02;9.32;;;7.30;89.30;;;;;;5007590;28;20124;-61
2023/02/24 08:03:40;;;;;;;13.30;8.77;;;7.40;89.50;;;;;;5005220;28;20156;-59
2023/02/24 08:06:25;;;;;;;14.18;9.48;;;7.50;89.60;;;;;;5006538;28;20083;-60
2023/02/24 08:08:58;;;;;;;12.35;8.77;;;7.60;89.50;;;;;;5005514;28;20038;-59
2023/02/24 08:11:34;;;;;;;13.45;8.65;;;7.60;90.10;;;;;;5003701;28;20042;-61
2023/02/24 08:14:09;;;;;;;12.85;8.75;;;7.70;89.50;;;;;;5007325;28;20037;-59
2023/02/24 08:16:38;;;;;;;12.52;8.38;;;7.80;89.20;;;;;;5008258;28;20109;-58
2023/02/24 08:19:12;;;;;;;12.82;8.25;;;7.80;89.20;;;;;;5006429;28;20045;-60
2023/02/24 08:21:46;;;;;;;12.85;7.97;;;7.90;89.30;;;;;;5007345;28;20042;-60
2023/02/24 08:24:18;;;;;;;11.95;8.05;;;7.90;89.30;;;;;;5006946;28;20493;-60
2023/02/24 08:27:03;;;;;;;12.85;8.13;;;8.00;89.60;;;;;;5003479;28;20412;-61
2023/02/24 08:29:56;;;;;;;17.65;8.52;;;8.00;89.50;;;;;;5008121;28;20037;-60
2023/02/24 08:32:42;;;;;;;12.90;8.73;;;8.10;90.00;;;;;;5011064;28;20120;-61
2023/02/24 08:35:18;;;;;;;13.20;9.60;;;8.20;90.20;;;;;;5008436;28;20045;-59
2023/02/24 08:37:52;;;;;;;14.18;9.55;;;8.30;89.90;;;;;;5011473;28;20045;-58
2023/02/24 08:42:58;;;;;;;16.52;9.93;;;8.40;90.00;;;;;;5010587;28;20061;-61
2023/02/24 08:45:32;;;;;;;13.07;9.63;;;8.50;90.00;;;;;;5005998;28;20112;-60
2023/02/24 08:47:59;;;;;;;15.90;10.13;;;8.60;90.10;;;;;;5012480;28;20511;-59
2023/02/24 08:50:31;;;;;;;14.80;9.63;;;8.60;89.70;;;;;;5009692;28;20040;-61
2023/02/24 08:52:59;;;;;;;13.23;9.55;;;8.70;89.70;;;;;;5008072;28;20856;-60
2023/02/24 08:55:29;;;;;;;13.90;9.18;;;8.80;89.70;;;;;;5008999;28;20415;-61
2023/02/24 08:58:00;;;;;;;14.30;10.43;;;8.80;89.70;;;;;;5012548;28;20033;-60
2023/02/24 09:00:47;;;;;;;16.75;9.68;;;8.90;89.90;;;;;;5012954;28;20034;-60
2023/02/24 09:03:26;;;;;;;14.35;9.73;;;8.90;89.50;;;;;;5002737;28;20041;-61
2023/02/24 09:05:59;;;;;;;14.10;10.63;;;9.00;89.30;;;;;;5010137;28;20065;-60
2023/02/24 09:08:31;;;;;;;13.40;9.98;;;9.00;89.20;;;;;;5011192;28;20523;-58
2023/02/24 09:10:58;;;;;;;15.25;10.43;;;9.00;88.90;;;;;;5009609;28;20566;-59
2023/02/24 09:13:31;;;;;;;14.85;9.70;;;9.10;88.90;;;;;;5007840;28;20034;-59
2023/02/24 09:15:58;;;;;;;14.50;10.25;;;9.10;88.60;;;;;;5011899;28;20034;-60
2023/02/24 09:18:29;;;;;;;12.55;9.20;;;9.10;88.50;;;;;;5012688;28;20033;-57
2023/02/24 09:23:45;;;;;;;13.70;9.75;;;9.10;88.30;;;;;;5010401;28;20414;-59
2023/02/24 09:26:12;;;;;;;14.48;9.82;;;9.10;88.20;;;;;;5009210;28;20029;-59
2023/02/24 09:28:53;;;;;;;16.40;10.38;;;9.10;88.20;;;;;;5009135;28;20124;-58
2023/02/24 09:31:22;;;;;;;15.32;9.88;;;9.10;88.20;;;;;;5008265;28;20461;-59
2023/02/24 09:33:49;;;;;;;13.57;10.43;;;9.10;88.10;;;;;;5015061;28;20042;-58
2023/02/24 09:36:26;;;;;;;16.17;10.18;;;9.10;88.00;;;;;;5013304;28;20602;-59
2023/02/24 09:42:02;;;;;;;16.95;10.48;;;9.10;88.20;;;;;;5014014;28;20494;-60
2023/02/24 09:44:32;;;;;;;15.25;11.23;;;9.00;88.60;;;;;;5011890;28;20044;-61
2023/02/24 09:47:09;;;;;;;12.95;9.23;;;9.00;88.20;;;;;;5012768;28;20061;-60
2023/02/24 09:49:55;;;;;;;13.00;9.25;;;9.10;88.30;;;;;;5010659;28;20145;-59
2023/02/24 09:52:38;;;;;;;14.35;10.52;;;9.10;88.60;;;;;;5014724;28;20064;-60
2023/02/24 09:55:24;;;;;;;14.82;11.07;;;9.10;88.30;;;;;;4990712;28;20065;-59
2023/02/24 10:00:43;;;;;;;14.90;9.85;;;9.10;88.80;;;;;;5007779;28;20072;-60
2023/02/24 10:03:40;;;;;;;19.55;11.15;;;9.10;88.80;;;;;;5010318;28;20497;-61
2023/02/24 10:06:34;;;;;;;14.52;10.48;;;9.10;89.20;;;;;;5012292;28;20029;-61
2023/02/24 10:09:15;;;;;;;18.98;10.70;;;9.20;89.50;;;;;;4991451;28;20111;-60
2023/02/24 10:12:16;;;;;;;15.95;10.35;;;9.20;89.70;;;;;;5000182;28;20659;-60
2023/02/24 10:17:54;;;;;;;19.08;10.52;;;9.50;90.10;;;;;;5012059;28;20106;-60
2023/02/24 10:20:29;;;;;;;14.30;10.82;;;9.60;89.90;;;;;;5012736;28;20037;-59
2023/02/24 10:23:34;;;;;;;16.23;10.65;;;9.60;89.70;;;;;;4993761;28;20050;-58
2023/02/24 10:26:43;;;;;;;18.55;11.95;;;9.70;89.80;;;;;;5002073;28;20030;-59
2023/02/24 10:29:38;;;;;;;15.05;10.63;;;9.80;89.80;;;;;;4989755;28;20034;-58
2023/02/24 10:32:42;;;;;;;17.27;11.45;;;9.90;89.40;;;;;;4991341;28;20548;-58
2023/02/24 10:35:19;;;;;;;15.77;10.73;;;10.00;89.10;;;;;;5005221;28;20038;-61
2023/02/24 10:37:46;;;;;;;19.63;12.40;;;10.00;88.90;;;;;;5010766;28;20034;-60
2023/02/24 10:40:23;;;;;;;22.15;12.18;;;10.10;88.70;;;;;;5009617;28;20508;-60
2023/02/24 10:42:49;;;;;;;18.13;11.70;;;10.10;88.80;;;;;;5007423;28;20060;-60
2023/02/24 10:45:24;;;;;;;20.25;11.25;;;10.10;88.50;;;;;;5011274;28;20033;-62
2023/02/24 10:47:55;;;;;;;19.00;12.32;;;10.20;88.30;;;;;;5008749;28;20482;-59
2023/02/24 10:50:30;;;;;;;19.33;11.73;;;10.30;88.00;;;;;;5010644;28;20421;-60
2023/02/24 10:53:24;;;;;;;19.30;11.68;;;10.30;87.80;;;;;;4989315;28;20046;-59
2023/02/24 10:56:13;;;;;;;19.77;11.98;;;10.40;87.70;;;;;;5001118;28;20041;-59
2023/02/24 10:58:55;;;;;;;18.05;11.27;;;10.50;87.60;;;;;;5010382;28;20567;-59
2023/02/24 11:01:39;;;;;;;18.23;11.18;;;10.50;87.20;;;;;;5008748;28;20510;-59
2023/02/24 11:04:21;;;;;;;18.73;11.23;;;10.60;87.20;;;;;;5004556;28;20048;-61
2023/02/24 11:06:51;;;;;;;20.15;11.25;;;10.60;87.10;;;;;;5015651;28;25040;-60
2023/02/24 11:17:59;;;;;;;21.25;11.27;;;10.80;86.40;;;;;;5015349;28;20536;-61
2023/02/24 11:20:42;;;;;;;20.02;11.75;;;10.90;86.20;;;;;;5011547;28;20038;-59
2023/02/24 11:23:14;;;;;;;17.75;11.95;;;10.90;86.10;;;;;;5012348;28;20073;-58
2023/02/24 11:25:44;;;;;;;20.38;11.52;;;10.90;86.10;;;;;;5012064;28;20473;-60
2023/02/24 11:28:42;;;;;;;19.85;12.63;;;10.90;86.20;;;;;;5013977;28;20061;-60
2023/02/24 11:31:29;;;;;;;21.25;11.85;;;11.00;86.60;;;;;;5013410;28;20446;-60
2023/02/24 11:34:04;;;;;;;18.02;12.93;;;11.00;86.40;;;;;;5004412;28;20043;-60
2023/02/24 11:36:40;;;;;;;24.98;16.67;;;11.10;86.40;;;;;;5010452;28;20069;-61
2023/02/24 11:39:21;;;;;;;21.52;13.68;;;11.10;86.30;;;;;;5010336;28;20034;-60
2023/02/24 11:41:51;;;;;;;19.75;12.43;;;11.20;86.60;;;;;;5011185;28;20046;-56
2023/02/24 11:44:27;;;;;;;19.77;12.30;;;11.30;86.60;;;;;;5011749;28;20229;-60
2023/02/24 11:46:56;;;;;;;19.95;11.50;;;11.30;86.40;;;;;;5012102;28;20041;-59
2023/02/24 11:49:46;;;;;;;19.98;11.90;;;11.40;86.40;;;;;;5011001;28;20038;-61
2023/02/24 11:52:30;;;;;;;16.80;11.40;;;11.50;86.40;;;;;;5006438;28;20034;-60
2023/02/24 11:54:59;;;;;;;20.67;12.57;;;11.50;86.40;;;;;;5009517;28;20516;-59
2023/02/24 11:57:49;;;;;;;19.42;11.70;;;11.60;86.10;;;;;;5007358;28;20030;-60
2023/02/24 12:00:22;;;;;;;18.48;11.23;;;11.70;86.20;;;;;;5006019;28;20041;-58
2023/02/24 12:02:58;;;;;;;19.48;11.35;;;11.80;86.60;;;;;;5008180;28;20323;-61
2023/02/24 12:05:30;;;;;;;16.85;10.90;;;11.90;86.30;;;;;;5012006;28;20088;-61
2023/02/24 12:08:08;;;;;;;17.40;10.60;;;12.00;86.20;;;;;;5014803;28;20134;-57
2023/02/24 12:10:38;;;;;;;14.57;9.35;;;12.00;85.70;;;;;;5013822;28;20026;-59
2023/02/24 12:13:31;;;;;;;16.13;9.82;;;12.10;85.30;;;;;;5011774;28;20060;-60
2023/02/24 12:16:06;;;;;;;18.77;9.00;;;12.20;84.20;;;;;;5008698;28;20041;-60
2023/02/24 12:18:39;;;;;;;16.77;8.95;;;12.30;83.50;;;;;;5014597;28;20057;-60
2023/02/24 12:21:14;;;;;;;12.65;7.95;;;12.30;82.90;;;;;;5016484;28;20042;-59
2023/02/24 12:23:47;;;;;;;15.15;8.10;;;12.30;83.00;;;;;;5011230;28;20484;-60
2023/02/24 12:26:22;;;;;;;21.50;8.05;;;12.30;82.70;;;;;;5011565;28;20029;-59
2023/02/24 12:29:09;;;;;;;17.13;7.60;;;12.30;82.90;;;;;;5011708;28;20030;-60
2023/02/24 12:31:40;;;;;;;15.52;7.82;;;12.40;82.90;;;;;;5011991;28;20497;-60
2023/02/24 12:34:28;;;;;;;12.73;7.88;;;12.40;82.70;;;;;;5012274;28;20030;-60
2023/02/24 12:37:19;;;;;;;19.48;7.63;;;12.50;82.20;;;;;;5011770;28;20034;-59
2023/02/24 12:39:59;;;;;;;18.73;7.57;;;12.50;82.20;;;;;;5012015;28;20038;-61
2023/02/24 12:42:48;;;;;;;15.98;7.85;;;12.50;81.90;;;;;;5014975;28;20081;-61
2023/02/24 12:45:16;;;;;;;16.13;6.85;;;12.60;81.40;;;;;;5006066;28;20038;-60
2023/02/24 12:48:10;;;;;;;12.73;6.85;;;12.60;81.30;;;;;;5011736;28;20498;-61
2023/02/24 12:51:09;;;;;;;12.82;6.40;;;12.60;80.40;;;;;;5012898;28;20040;-61
2023/02/24 12:53:53;;;;;;;14.35;6.95;;;12.60;80.40;;;;;;5012524;28;20048;-61
2023/02/24 12:56:23;;;;;;;15.48;6.53;;;12.60;80.20;;;;;;5012908;28;20084;-60
2023/02/24 12:58:57;;;;;;;15.98;6.90;;;12.60;80.80;;;;;;5008044;28;20112;-59
2023/02/24 13:01:31;;;;;;;13.52;7.22;;;12.60;80.60;;;;;;5006216;28;20688;-59
2023/02/24 13:04:24;;;;;;;21.30;7.18;;;12.60;81.10;;;;;;5002351;28;20469;-60
2023/02/24 13:06:49;;;;;;;14.48;7.05;;;12.60;80.30;;;;;;5003746;28;20029;-60
2023/02/24 13:09:34;;;;;;;17.73;7.43;;;12.60;80.70;;;;;;5007842;28;20041;-60
2023/02/24 13:12:19;;;;;;;14.82;7.53;;;12.50;80.10;;;;;;5013645;28;20043;-59
2023/02/24 13:14:46;;;;;;;16.40;7.00;;;12.50;80.10;;;;;;5003353;28;20038;-60
2023/02/24 13:17:11;;;;;;;14.73;7.15;;;12.50;80.50;;;;;;5006402;28;20292;-59
2023/02/24 13:19:42;;;;;;;15.93;7.43;;;12.40;80.50;;;;;;5013431;28;21431;-59
2023/02/24 13:22:10;;;;;;;14.25;6.90;;;12.40;80.40;;;;;;5013030;28;20034;-60
2023/02/24 13:24:40;;;;;;;17.48;7.00;;;12.40;80.50;;;;;;5013050;28;20552;-59
2023/02/24 13:27:11;;;;;;;18.02;7.57;;;12.30;80.50;;;;;;5009553;28;20045;-59
2023/02/24 13:29:49;;;;;;;16.10;7.03;;;12.30;80.70;;;;;;5013533;28;20398;-61
2023/02/24 13:32:31;;;;;;;16.00;7.40;;;12.30;80.80;;;;;;5013406;28;20056;-59
2023/02/24 13:35:24;;;;;;;13.55;6.90;;;12.30;80.30;;;;;;5013468;28;20057;-61
2023/02/24 13:37:50;;;;;;;13.93;7.35;;;12.30;80.60;;;;;;5016654;28;20030;-60
2023/02/24 13:40:21;;;;;;;15.70;6.95;;;12.30;80.70;;;;;;5013955;28;20076;-61
2023/02/24 13:42:58;;;;;;;14.02;7.10;;;12.40;80.60;;;;;;5009713;28;20081;-61
2023/02/24 13:45:34;;;;;;;14.80;6.80;;;12.40;80.50;;;;;;5008149;28;20149;-59
2023/02/24 13:48:09;;;;;;;14.23;6.82;;;12.40;80.60;;;;;;5011178;28;20034;-61